Time;durP1;ratioP1;P1;durP2;ratioP2;P2;SDS_P1;SDS_P2;PMS_P1;PMS_P2;Temp;Humidity;BMP_temperature;BMP_pressure;BME280_temperature;BME280_humidity;BME280_pressure;Samples;Min_cycle;Max_cycle;Signal;HPM_P1;HPM_P2
2024/03/18 00:01:59;;;;;;;61.60;19.85;;;;;;;;;;6272640;22;20012;-72
2024/03/18 00:04:26;;;;;;;44.33;15.35;;;;;;;;;;6272188;22;20008;-71
2024/03/18 00:06:55;;;;;;;61.10;20.80;;;;;;;;;;6271683;22;20007;-72
2024/03/18 00:09:24;;;;;;;46.38;14.93;;;;;;;;;;6273398;22;20019;-72
2024/03/18 00:11:50;;;;;;;57.13;19.75;;;;;;;;;;6272123;22;20012;-71
2024/03/18 00:14:16;;;;;;;63.60;22.20;;;;;;;;;;6274168;22;20077;-73
2024/03/18 00:16:42;;;;;;;37.95;15.73;;;;;;;;;;6271279;22;20012;-72
2024/03/18 00:19:08;;;;;;;57.08;17.60;;;;;;;;;;6271641;22;20099;-71
2024/03/18 00:21:36;;;;;;;76.30;22.05;;;;;;;;;;6271017;22;20397;-72
2024/03/18 00:24:01;;;;;;;51.30;19.13;;;;;;;;;;6270357;22;20034;-72
2024/03/18 00:26:27;;;;;;;49.25;16.90;;;;;;;;;;6271967;22;20012;-72
2024/03/18 00:28:53;;;;;;;68.15;16.52;;;;;;;;;;6271953;22;20020;-71
2024/03/18 00:31:19;;;;;;;46.15;17.80;;;;;;;;;;6271635;22;20004;-71
2024/03/18 00:33:45;;;;;;;56.15;17.50;;;;;;;;;;6271871;22;20016;-73
2024/03/18 00:36:11;;;;;;;61.45;18.10;;;;;;;;;;6274673;22;20011;-73
2024/03/18 00:38:38;;;;;;;57.97;19.60;;;;;;;;;;6274529;22;20008;-71
2024/03/18 00:43:48;;;;;;;25.77;11.52;;;;;;;;;;6270418;22;20533;-72
2024/03/18 00:46:14;;;;;;;67.30;19.65;;;;;;;;;;6275604;22;20004;-72
2024/03/18 00:48:40;;;;;;;56.58;19.60;;;;;;;;;;6272855;22;20419;-73
2024/03/18 00:51:06;;;;;;;60.85;22.60;;;;;;;;;;6249621;22;20008;-73
2024/03/18 00:53:32;;;;;;;50.22;15.68;;;;;;;;;;6277181;22;20019;-72
2024/03/18 00:55:58;;;;;;;47.65;15.63;;;;;;;;;;6278228;22;20383;-72
2024/03/18 00:58:24;;;;;;;22.65;11.23;;;;;;;;;;6250407;22;20078;-72
2024/03/18 01:00:50;;;;;;;67.47;19.67;;;;;;;;;;6247423;22;20011;-71
2024/03/18 01:03:16;;;;;;;52.75;18.65;;;;;;;;;;6246047;22;20028;-72
2024/03/18 01:05:41;;;;;;;73.65;20.35;;;;;;;;;;6273038;22;20014;-73
2024/03/18 01:08:08;;;;;;;49.90;18.23;;;;;;;;;;6272663;22;20475;-72
2024/03/18 01:10:33;;;;;;;54.53;17.77;;;;;;;;;;6272625;22;20011;-73
2024/03/18 01:12:59;;;;;;;44.00;15.02;;;;;;;;;;6270283;22;20015;-72
2024/03/18 01:15:25;;;;;;;77.60;23.08;;;;;;;;;;6221008;22;20471;-73
2024/03/18 01:17:51;;;;;;;57.92;18.90;;;;;;;;;;6272385;22;20019;-73
2024/03/18 01:20:19;;;;;;;54.72;20.95;;;;;;;;;;6272430;22;20011;-72
2024/03/18 01:22:45;;;;;;;62.67;21.45;;;;;;;;;;6269406;22;20502;-73
2024/03/18 01:25:14;;;;;;;57.45;20.92;;;;;;;;;;6270835;22;20004;-72
2024/03/18 01:27:40;;;;;;;70.50;21.13;;;;;;;;;;6271160;22;20093;-73
2024/03/18 01:30:12;;;;;;;69.65;21.50;;;;;;;;;;6271065;22;20367;-75
2024/03/18 01:32:38;;;;;;;65.20;21.05;;;;;;;;;;6271347;22;20015;-73
2024/03/18 01:35:05;;;;;;;50.33;17.13;;;;;;;;;;6272330;22;20018;-72
2024/03/18 01:37:31;;;;;;;72.47;20.75;;;;;;;;;;6272788;22;20017;-74
2024/03/18 01:39:57;;;;;;;56.30;20.35;;;;;;;;;;6271165;22;20090;-73
2024/03/18 01:42:23;;;;;;;55.95;18.05;;;;;;;;;;6243918;22;20032;-73
2024/03/18 01:44:53;;;;;;;61.00;20.92;;;;;;;;;;6270481;22;20008;-72
2024/03/18 01:47:20;;;;;;;54.42;21.35;;;;;;;;;;6271402;22;20468;-71
2024/03/18 01:49:47;;;;;;;59.03;19.88;;;;;;;;;;6271996;22;20018;-72
2024/03/18 01:52:12;;;;;;;71.57;22.48;;;;;;;;;;6269562;22;20023;-72
2024/03/18 01:54:39;;;;;;;65.65;22.52;;;;;;;;;;6270346;22;20011;-73
2024/03/18 01:57:09;;;;;;;70.53;21.75;;;;;;;;;;6272003;22;20059;-71
2024/03/18 01:59:35;;;;;;;65.15;21.05;;;;;;;;;;6270566;22;20088;-72
2024/03/18 02:02:01;;;;;;;73.93;21.00;;;;;;;;;;6269929;22;20012;-72
2024/03/18 02:04:27;;;;;;;38.88;15.75;;;;;;;;;;6271696;22;20492;-72
2024/03/18 02:06:54;;;;;;;35.72;12.20;;;;;;;;;;6272137;22;20019;-72
2024/03/18 02:09:20;;;;;;;49.30;17.23;;;;;;;;;;6272701;22;20020;-71
2024/03/18 02:11:46;;;;;;;56.65;18.38;;;;;;;;;;6269577;22;20069;-73
2024/03/18 02:14:12;;;;;;;51.97;19.58;;;;;;;;;;6272216;22;20012;-73
2024/03/18 02:16:38;;;;;;;61.92;21.02;;;;;;;;;;6270220;22;20015;-73
2024/03/18 02:19:23;;;;;;;61.92;19.05;;;;;;;;;;6249521;22;20047;-72
2024/03/18 02:21:49;;;;;;;76.85;23.08;;;;;;;;;;6269027;22;20023;-73
2024/03/18 02:24:16;;;;;;;58.05;17.23;;;;;;;;;;6272101;22;20019;-73
2024/03/18 02:26:42;;;;;;;34.25;13.68;;;;;;;;;;6270291;22;20094;-73
2024/03/18 02:29:08;;;;;;;46.17;19.13;;;;;;;;;;6272899;22;20046;-73
2024/03/18 02:31:34;;;;;;;44.05;12.57;;;;;;;;;;6270341;22;20395;-73
2024/03/18 02:34:00;;;;;;;48.83;16.83;;;;;;;;;;6270968;22;20039;-74
2024/03/18 02:36:26;;;;;;;28.20;11.75;;;;;;;;;;6272059;22;20448;-72
2024/03/18 02:38:52;;;;;;;17.15;9.77;;;;;;;;;;6270019;22;20094;-71
2024/03/18 02:41:18;;;;;;;59.83;16.95;;;;;;;;;;6244968;22;20078;-71
2024/03/18 02:43:44;;;;;;;35.67;12.80;;;;;;;;;;6270683;22;20053;-72
2024/03/18 02:46:10;;;;;;;84.85;21.33;;;;;;;;;;6270265;22;20090;-72
2024/03/18 02:48:36;;;;;;;51.90;19.20;;;;;;;;;;6271677;22;20090;-73
2024/03/18 02:51:04;;;;;;;53.40;13.23;;;;;;;;;;6271992;22;20015;-72
2024/03/18 02:53:30;;;;;;;36.30;13.35;;;;;;;;;;6270589;22;20085;-72
2024/03/18 02:55:56;;;;;;;49.80;17.52;;;;;;;;;;6274669;22;20087;-71
2024/03/18 02:58:21;;;;;;;46.40;14.93;;;;;;;;;;6272335;22;20042;-72
2024/03/18 03:00:47;;;;;;;48.65;12.27;;;;;;;;;;6273605;22;20007;-70
2024/03/18 03:03:13;;;;;;;52.15;15.85;;;;;;;;;;6273332;22;20042;-72
2024/03/18 03:05:39;;;;;;;71.28;19.73;;;;;;;;;;6273716;22;20073;-72
2024/03/18 03:08:05;;;;;;;66.95;18.58;;;;;;;;;;6272377;22;20019;-73
2024/03/18 03:10:31;;;;;;;50.30;21.38;;;;;;;;;;6272326;22;20018;-71
2024/03/18 03:12:57;;;;;;;60.25;20.00;;;;;;;;;;6270800;22;20016;-72
2024/03/18 03:15:23;;;;;;;58.08;18.63;;;;;;;;;;6273022;22;20020;-72
2024/03/18 03:17:49;;;;;;;68.50;20.33;;;;;;;;;;6271781;22;20094;-72
2024/03/18 03:20:19;;;;;;;62.45;20.67;;;;;;;;;;6273107;22;20046;-73
2024/03/18 03:22:45;;;;;;;64.63;20.65;;;;;;;;;;6270430;22;20110;-72
2024/03/18 03:25:11;;;;;;;56.55;20.33;;;;;;;;;;6271915;22;20408;-72
2024/03/18 03:27:37;;;;;;;60.15;20.02;;;;;;;;;;6246528;22;20451;-73
2024/03/18 03:30:03;;;;;;;68.63;19.63;;;;;;;;;;6271760;22;20008;-74
2024/03/18 03:32:29;;;;;;;56.47;20.00;;;;;;;;;;6272768;22;20031;-75
2024/03/18 03:34:55;;;;;;;73.30;21.17;;;;;;;;;;6273280;22;20011;-73
2024/03/18 03:37:21;;;;;;;53.53;18.40;;;;;;;;;;6221714;22;20411;-73
2024/03/18 03:39:46;;;;;;;65.35;22.50;;;;;;;;;;6271483;22;20011;-73
2024/03/18 03:42:12;;;;;;;62.67;21.60;;;;;;;;;;6270674;22;20027;-73
2024/03/18 03:44:38;;;;;;;69.55;23.52;;;;;;;;;;6271819;22;20038;-73
2024/03/18 03:47:04;;;;;;;57.15;20.65;;;;;;;;;;6273282;22;20018;-73
2024/03/18 03:49:30;;;;;;;76.93;21.48;;;;;;;;;;6273968;22;20015;-74
2024/03/18 03:51:56;;;;;;;58.05;24.17;;;;;;;;;;6271278;22;20077;-73
2024/03/18 03:54:23;;;;;;;70.82;23.63;;;;;;;;;;6271946;22;20012;-74
2024/03/18 03:56:49;;;;;;;74.47;24.25;;;;;;;;;;6271510;22;20093;-74
2024/03/18 03:59:15;;;;;;;72.53;23.63;;;;;;;;;;6273851;22;20427;-74
2024/03/18 04:01:41;;;;;;;62.55;21.80;;;;;;;;;;6273043;22;20011;-75
2024/03/18 04:04:07;;;;;;;54.08;23.45;;;;;;;;;;6273870;22;20035;-74
2024/03/18 04:06:32;;;;;;;64.63;23.02;;;;;;;;;;6275252;22;20077;-74
2024/03/18 04:08:58;;;;;;;61.53;24.30;;;;;;;;;;6276498;22;20020;-74
2024/03/18 04:11:24;;;;;;;73.05;24.27;;;;;;;;;;6249317;22;20012;-74
2024/03/18 04:13:51;;;;;;;73.47;25.27;;;;;;;;;;6272820;22;20027;-72
2024/03/18 04:16:19;;;;;;;66.40;23.00;;;;;;;;;;6274152;22;20329;-74
2024/03/18 04:18:46;;;;;;;70.03;24.83;;;;;;;;;;6272617;22;20015;-73
2024/03/18 04:21:12;;;;;;;77.90;25.65;;;;;;;;;;6272147;22;20019;-74
2024/03/18 04:23:38;;;;;;;54.40;22.58;;;;;;;;;;6272090;22;20484;-74
2024/03/18 04:26:08;;;;;;;84.10;22.85;;;;;;;;;;6271212;22;20014;-74
2024/03/18 04:28:34;;;;;;;69.82;23.92;;;;;;;;;;6273179;22;20019;-75
2024/03/18 04:31:07;;;;;;;72.90;25.40;;;;;;;;;;6272700;22;20457;-74
2024/03/18 04:33:51;;;;;;;89.22;25.65;;;;;;;;;;6270239;22;20526;-74
2024/03/18 04:36:17;;;;;;;60.22;22.70;;;;;;;;;;6273450;22;20008;-75
2024/03/18 04:38:43;;;;;;;57.72;23.23;;;;;;;;;;6271094;22;20016;-75
2024/03/18 04:41:09;;;;;;;71.93;26.02;;;;;;;;;;6271461;22;20022;-73
2024/03/18 04:43:38;;;;;;;68.50;24.55;;;;;;;;;;6245611;22;20035;-74
2024/03/18 04:46:04;;;;;;;55.22;23.25;;;;;;;;;;6271106;22;20061;-74
2024/03/18 04:48:30;;;;;;;67.20;23.17;;;;;;;;;;6274065;22;20012;-76
2024/03/18 04:50:56;;;;;;;80.90;28.83;;;;;;;;;;6272520;22;20011;-76
2024/03/18 04:53:22;;;;;;;74.38;24.52;;;;;;;;;;6248634;22;20016;-75
2024/03/18 04:55:48;;;;;;;62.33;21.95;;;;;;;;;;6242030;22;20405;-74
2024/03/18 04:58:14;;;;;;;67.47;22.75;;;;;;;;;;6216723;23;20008;-75
2024/03/18 05:00:41;;;;;;;69.00;22.88;;;;;;;;;;6240759;23;20016;-74
2024/03/18 05:03:07;;;;;;;56.38;19.40;;;;;;;;;;6169152;22;20108;-75
2024/03/18 05:05:32;;;;;;;63.90;22.63;;;;;;;;;;6117430;23;20402;-77
2024/03/18 05:07:59;;;;;;;63.63;22.77;;;;;;;;;;6117124;23;20489;-75
2024/03/18 05:10:27;;;;;;;76.10;22.80;;;;;;;;;;6092795;23;20014;-75
2024/03/18 05:12:53;;;;;;;75.35;23.67;;;;;;;;;;6190129;22;20023;-74
2024/03/18 05:15:19;;;;;;;66.40;21.75;;;;;;;;;;6271902;22;20011;-75
2024/03/18 05:17:45;;;;;;;54.58;22.27;;;;;;;;;;6270958;22;20018;-76
2024/03/18 05:20:11;;;;;;;65.53;21.60;;;;;;;;;;6274329;22;20057;-75
2024/03/18 05:22:37;;;;;;;53.33;21.05;;;;;;;;;;6245979;22;20036;-75
2024/03/18 05:25:06;;;;;;;67.30;21.23;;;;;;;;;;6272800;22;20019;-75
2024/03/18 05:27:32;;;;;;;52.53;17.60;;;;;;;;;;6247073;22;20043;-76
2024/03/18 05:29:59;;;;;;;52.53;20.55;;;;;;;;;;6269149;22;20019;-74
2024/03/18 05:32:24;;;;;;;68.28;22.60;;;;;;;;;;6271033;22;20069;-75
2024/03/18 05:34:50;;;;;;;48.03;19.52;;;;;;;;;;6272408;22;20007;-73
2024/03/18 05:37:17;;;;;;;54.65;22.05;;;;;;;;;;6250913;22;20517;-74
2024/03/18 05:39:43;;;;;;;65.45;21.45;;;;;;;;;;6283117;22;20037;-74
2024/03/18 05:42:09;;;;;;;72.47;23.13;;;;;;;;;;6281245;22;20045;-75
2024/03/18 05:44:35;;;;;;;66.30;22.75;;;;;;;;;;6278085;22;20086;-75
2024/03/18 05:47:01;;;;;;;67.57;22.70;;;;;;;;;;6273052;22;20011;-74
2024/03/18 05:52:14;;;;;;;73.22;23.92;;;;;;;;;;6267175;22;20104;-74
2024/03/18 05:54:40;;;;;;;63.13;22.52;;;;;;;;;;6272339;22;20062;-74
2024/03/18 05:57:08;;;;;;;71.18;23.20;;;;;;;;;;6270143;22;20008;-74
2024/03/18 05:59:34;;;;;;;78.10;24.63;;;;;;;;;;6269728;22;20062;-75
2024/03/18 06:02:00;;;;;;;75.50;25.45;;;;;;;;;;6268791;22;20012;-75
2024/03/18 06:04:26;;;;;;;70.63;23.42;;;;;;;;;;6270198;22;20107;-75
2024/03/18 06:06:52;;;;;;;76.05;24.33;;;;;;;;;;6269506;22;20012;-74
2024/03/18 06:09:17;;;;;;;69.95;22.88;;;;;;;;;;6270117;22;20352;-74
2024/03/18 06:11:43;;;;;;;74.72;24.70;;;;;;;;;;6270269;22;20365;-73
2024/03/18 06:14:11;;;;;;;85.57;24.85;;;;;;;;;;6244576;22;20011;-75
2024/03/18 06:16:37;;;;;;;70.47;25.02;;;;;;;;;;6266586;22;20039;-71
2024/03/18 06:19:04;;;;;;;72.75;25.50;;;;;;;;;;6242962;22;20073;-72
2024/03/18 06:21:39;;;;;;;76.65;26.63;;;;;;;;;;6269289;22;20042;-73
2024/03/18 06:24:09;;;;;;;79.88;28.67;;;;;;;;;;6243701;22;20027;-72
2024/03/18 06:26:35;;;;;;;68.10;22.40;;;;;;;;;;6245076;22;20077;-74
2024/03/18 06:29:01;;;;;;;79.88;24.55;;;;;;;;;;6244325;22;20015;-74
2024/03/18 06:31:27;;;;;;;73.22;23.38;;;;;;;;;;6272960;22;20015;-73
2024/03/18 06:33:53;;;;;;;74.80;24.48;;;;;;;;;;6272324;22;20027;-73
2024/03/18 06:36:18;;;;;;;72.63;22.02;;;;;;;;;;6273046;22;20015;-74
2024/03/18 06:38:44;;;;;;;72.13;22.83;;;;;;;;;;6273275;22;20019;-74
2024/03/18 06:41:11;;;;;;;84.55;25.67;;;;;;;;;;6271435;22;20018;-72
2024/03/18 06:43:37;;;;;;;60.50;22.17;;;;;;;;;;6246833;22;20533;-74
2024/03/18 06:46:05;;;;;;;75.93;23.67;;;;;;;;;;6272595;22;20019;-74
2024/03/18 06:48:32;;;;;;;71.35;24.23;;;;;;;;;;6271556;22;20015;-72
2024/03/18 06:50:58;;;;;;;54.28;21.83;;;;;;;;;;6271272;22;20008;-73
2024/03/18 06:53:24;;;;;;;76.63;25.23;;;;;;;;;;6269733;22;20145;-73
2024/03/18 06:55:50;;;;;;;73.00;24.83;;;;;;;;;;6194657;22;20015;-72
2024/03/18 06:58:18;;;;;;;85.93;26.60;;;;;;;;;;6272900;22;20399;-71
2024/03/18 07:00:44;;;;;;;76.70;24.75;;;;;;;;;;6272856;22;20012;-72
2024/03/18 07:03:10;;;;;;;66.70;24.58;;;;;;;;;;6270258;22;20038;-72
2024/03/18 07:05:36;;;;;;;78.55;26.80;;;;;;;;;;6272711;22;20479;-73
2024/03/18 07:08:02;;;;;;;76.32;23.83;;;;;;;;;;6271972;22;20106;-73
2024/03/18 07:10:28;;;;;;;72.25;26.00;;;;;;;;;;6273089;22;20468;-73
2024/03/18 07:12:54;;;;;;;82.20;25.65;;;;;;;;;;6268409;22;20023;-74
2024/03/18 07:15:20;;;;;;;67.40;23.05;;;;;;;;;;6273752;22;20034;-73
2024/03/18 07:17:46;;;;;;;57.97;22.48;;;;;;;;;;6245980;22;20448;-73
2024/03/18 07:20:12;;;;;;;73.55;23.63;;;;;;;;;;6272618;22;20012;-72
2024/03/18 07:22:39;;;;;;;70.72;22.40;;;;;;;;;;6271307;22;20031;-70
2024/03/18 07:25:06;;;;;;;60.72;19.10;;;;;;;;;;6270879;22;20038;-71
2024/03/18 07:27:32;;;;;;;76.53;25.05;;;;;;;;;;6270608;22;20356;-72
2024/03/18 07:29:58;;;;;;;64.10;21.83;;;;;;;;;;6272457;22;20008;-72
2024/03/18 07:32:24;;;;;;;67.45;20.30;;;;;;;;;;6272197;22;20030;-72
2024/03/18 07:34:50;;;;;;;63.60;20.35;;;;;;;;;;6272586;22;20015;-72
2024/03/18 07:37:19;;;;;;;63.60;22.85;;;;;;;;;;6270531;22;20482;-71
2024/03/18 07:39:45;;;;;;;62.92;22.75;;;;;;;;;;6272976;22;20012;-74
2024/03/18 07:42:13;;;;;;;69.25;22.27;;;;;;;;;;6270469;22;20026;-74
2024/03/18 07:44:40;;;;;;;41.72;15.02;;;;;;;;;;6273698;22;20016;-72
2024/03/18 07:47:06;;;;;;;69.75;23.05;;;;;;;;;;6270716;22;20514;-73
2024/03/18 07:49:33;;;;;;;81.18;23.25;;;;;;;;;;6272647;22;20429;-73
2024/03/18 07:51:59;;;;;;;59.63;20.83;;;;;;;;;;6271257;22;20008;-72
2024/03/18 07:54:25;;;;;;;61.45;21.10;;;;;;;;;;6270839;22;20012;-71
2024/03/18 07:59:36;;;;;;;70.45;21.92;;;;;;;;;;6273158;22;20012;-73
2024/03/18 08:02:01;;;;;;;76.95;23.00;;;;;;;;;;6244265;22;20011;-73
2024/03/18 08:04:27;;;;;;;76.63;24.90;;;;;;;;;;6245404;22;20350;-74
2024/03/18 08:06:53;;;;;;;72.15;22.90;;;;;;;;;;6270111;22;20065;-72
2024/03/18 08:09:19;;;;;;;74.15;21.15;;;;;;;;;;6272414;22;20019;-75
2024/03/18 08:11:45;;;;;;;68.90;23.05;;;;;;;;;;6269542;22;20015;-74
2024/03/18 08:14:11;;;;;;;83.93;23.23;;;;;;;;;;6271677;22;20007;-74
2024/03/18 08:16:37;;;;;;;69.60;23.00;;;;;;;;;;6271180;22;20160;-75
2024/03/18 08:19:03;;;;;;;82.88;24.02;;;;;;;;;;6270660;22;20069;-74
2024/03/18 08:21:32;;;;;;;40.22;11.55;;;;;;;;;;6270144;22;20209;-72
2024/03/18 08:23:58;;;;;;;76.60;22.35;;;;;;;;;;6269387;22;20117;-74
2024/03/18 08:26:24;;;;;;;71.10;22.00;;;;;;;;;;6271858;22;20011;-73
2024/03/18 08:28:50;;;;;;;64.28;22.17;;;;;;;;;;6270591;22;20015;-74
2024/03/18 08:31:16;;;;;;;72.68;20.75;;;;;;;;;;6271325;22;20091;-73
2024/03/18 08:33:42;;;;;;;60.17;16.58;;;;;;;;;;6270869;22;20019;-73
2024/03/18 08:36:08;;;;;;;65.05;21.60;;;;;;;;;;6270016;22;20069;-75
2024/03/18 08:38:34;;;;;;;69.75;23.00;;;;;;;;;;6272192;22;20026;-72
2024/03/18 08:41:00;;;;;;;73.43;22.48;;;;;;;;;;6270892;22;20042;-73
2024/03/18 08:43:25;;;;;;;67.05;22.88;;;;;;;;;;6268318;22;20031;-72
2024/03/18 08:45:52;;;;;;;76.93;24.52;;;;;;;;;;6271465;22;20053;-72
2024/03/18 08:48:18;;;;;;;65.40;21.42;;;;;;;;;;6272139;22;20094;-74
2024/03/18 08:50:44;;;;;;;72.53;23.20;;;;;;;;;;6271616;22;20039;-71
2024/03/18 08:53:12;;;;;;;71.20;21.55;;;;;;;;;;6270778;22;20019;-71
2024/03/18 08:55:38;;;;;;;69.93;23.42;;;;;;;;;;6269857;22;20007;-72
2024/03/18 08:58:03;;;;;;;79.97;22.60;;;;;;;;;;6269736;22;20016;-72
2024/03/18 09:00:29;;;;;;;71.47;21.38;;;;;;;;;;6270717;22;20015;-71
2024/03/18 09:02:55;;;;;;;69.97;23.25;;;;;;;;;;6268799;22;20032;-72
2024/03/18 09:05:21;;;;;;;64.22;21.90;;;;;;;;;;6271004;22;20007;-71
2024/03/18 09:07:48;;;;;;;74.93;23.20;;;;;;;;;;6271847;22;20024;-71
2024/03/18 09:10:13;;;;;;;78.30;23.73;;;;;;;;;;6270128;22;20360;-71
2024/03/18 09:12:40;;;;;;;72.28;23.55;;;;;;;;;;6244247;22;20019;-68
2024/03/18 09:15:06;;;;;;;73.88;23.55;;;;;;;;;;6274289;22;20028;-68
2024/03/18 09:17:31;;;;;;;67.88;23.00;;;;;;;;;;6271304;22;20015;-69
2024/03/18 09:19:58;;;;;;;77.95;23.58;;;;;;;;;;6272152;22;20012;-70
2024/03/18 09:22:23;;;;;;;71.68;26.98;;;;;;;;;;6269627;22;20077;-68
2024/03/18 09:24:51;;;;;;;78.32;27.58;;;;;;;;;;6244833;22;20086;-74
2024/03/18 09:27:17;;;;;;;79.93;25.75;;;;;;;;;;6243882;22;20449;-73
2024/03/18 09:29:43;;;;;;;76.35;24.30;;;;;;;;;;6270977;22;20034;-71
2024/03/18 09:32:09;;;;;;;86.05;28.25;;;;;;;;;;6269667;22;20026;-73
2024/03/18 09:34:35;;;;;;;64.40;18.77;;;;;;;;;;6273097;22;20069;-73
2024/03/18 09:37:01;;;;;;;80.00;26.02;;;;;;;;;;6269929;22;20452;-73
2024/03/18 09:39:26;;;;;;;66.07;24.13;;;;;;;;;;6244606;22;20015;-72
2024/03/18 09:41:53;;;;;;;70.13;24.30;;;;;;;;;;6268824;22;20086;-72
2024/03/18 09:44:18;;;;;;;58.15;22.25;;;;;;;;;;6272148;22;20024;-74
2024/03/18 09:46:44;;;;;;;65.05;24.60;;;;;;;;;;6269505;22;20410;-72
2024/03/18 09:49:22;;;;;;;73.15;25.40;;;;;;;;;;6271388;22;20016;-74
2024/03/18 09:51:48;;;;;;;76.65;24.00;;;;;;;;;;6270488;22;20460;-72
2024/03/18 09:54:15;;;;;;;63.10;24.30;;;;;;;;;;6269755;22;20073;-73
2024/03/18 09:56:41;;;;;;;74.88;26.77;;;;;;;;;;6271522;22;20468;-71
2024/03/18 09:59:09;;;;;;;81.75;24.85;;;;;;;;;;6244654;22;20019;-71
2024/03/18 10:01:36;;;;;;;70.47;25.15;;;;;;;;;;6269269;22;20012;-72
2024/03/18 10:04:01;;;;;;;66.65;21.55;;;;;;;;;;6269672;22;20035;-73
2024/03/18 10:06:27;;;;;;;82.60;25.45;;;;;;;;;;6269726;22;20007;-72
2024/03/18 10:08:53;;;;;;;68.82;24.58;;;;;;;;;;6269231;22;20491;-71
2024/03/18 10:11:23;;;;;;;67.85;22.75;;;;;;;;;;6269250;22;20019;-71
2024/03/18 10:13:49;;;;;;;74.00;22.20;;;;;;;;;;6270359;22;20024;-71
2024/03/18 10:16:15;;;;;;;72.97;23.67;;;;;;;;;;6270103;22;20007;-71
2024/03/18 10:18:41;;;;;;;64.28;24.48;;;;;;;;;;6244428;22;20019;-70
2024/03/18 10:21:08;;;;;;;71.70;24.58;;;;;;;;;;6269338;22;20086;-71
2024/03/18 10:23:34;;;;;;;81.95;22.25;;;;;;;;;;6269219;22;20027;-70
2024/03/18 10:26:03;;;;;;;67.82;23.98;;;;;;;;;;6273360;22;20578;-71
2024/03/18 10:28:28;;;;;;;74.20;23.52;;;;;;;;;;6272332;22;20019;-70
2024/03/18 10:30:55;;;;;;;82.35;28.05;;;;;;;;;;6272843;22;20011;-72
2024/03/18 10:33:22;;;;;;;70.13;25.65;;;;;;;;;;6271186;22;20019;-74
2024/03/18 10:35:48;;;;;;;88.63;24.67;;;;;;;;;;6271806;22;20031;-72
2024/03/18 10:38:23;;;;;;;76.90;24.27;;;;;;;;;;6218437;22;20051;-72
2024/03/18 10:40:51;;;;;;;76.80;23.60;;;;;;;;;;6271031;22;20008;-70
2024/03/18 10:43:18;;;;;;;62.25;21.42;;;;;;;;;;6269282;22;20224;-71
2024/03/18 10:45:47;;;;;;;79.55;25.55;;;;;;;;;;6271366;22;20093;-70
2024/03/18 10:48:15;;;;;;;94.55;25.98;;;;;;;;;;6269911;22;20008;-73
2024/03/18 10:50:44;;;;;;;77.57;23.40;;;;;;;;;;6270273;22;20011;-72
2024/03/18 10:53:13;;;;;;;78.50;27.58;;;;;;;;;;6268578;22;20575;-74
2024/03/18 10:55:40;;;;;;;69.18;23.88;;;;;;;;;;6271247;22;20022;-73
2024/03/18 10:58:06;;;;;;;80.18;26.98;;;;;;;;;;6243984;22;20389;-72
2024/03/18 11:00:32;;;;;;;70.00;24.92;;;;;;;;;;6244682;22;20042;-71
2024/03/18 11:03:03;;;;;;;76.85;26.00;;;;;;;;;;6269108;22;20023;-72
2024/03/18 11:05:29;;;;;;;78.20;26.48;;;;;;;;;;6271448;22;20008;-72
2024/03/18 11:08:02;;;;;;;78.75;29.05;;;;;;;;;;6244140;22;20019;-72
2024/03/18 11:10:31;;;;;;;72.85;25.40;;;;;;;;;;6271235;22;20475;-72
2024/03/18 11:13:15;;;;;;;62.33;21.42;;;;;;;;;;6270033;22;20024;-70
2024/03/18 11:15:51;;;;;;;62.38;24.88;;;;;;;;;;6273335;22;20011;-71
2024/03/18 11:18:17;;;;;;;86.75;32.72;;;;;;;;;;6274493;22;20016;-70
2024/03/18 11:20:46;;;;;;;67.00;26.70;;;;;;;;;;6273277;22;20496;-70
2024/03/18 11:23:18;;;;;;;69.40;23.67;;;;;;;;;;6245576;22;20031;-71
2024/03/18 11:25:54;;;;;;;78.05;26.50;;;;;;;;;;6271439;22;20498;-72
2024/03/18 11:28:21;;;;;;;83.32;27.38;;;;;;;;;;6246410;22;20015;-72
2024/03/18 11:30:49;;;;;;;75.90;28.27;;;;;;;;;;6273207;22;20399;-73
2024/03/18 11:33:15;;;;;;;90.65;29.02;;;;;;;;;;6269680;22;20433;-71
2024/03/18 11:35:44;;;;;;;72.40;26.17;;;;;;;;;;6270668;22;20014;-71
2024/03/18 11:38:11;;;;;;;66.35;24.25;;;;;;;;;;6270406;22;20012;-71
2024/03/18 11:40:37;;;;;;;79.88;26.90;;;;;;;;;;6271171;22;20359;-70
2024/03/18 11:43:06;;;;;;;88.63;30.08;;;;;;;;;;6271389;22;20024;-72
2024/03/18 11:45:32;;;;;;;93.47;32.60;;;;;;;;;;6270128;22;20133;-71
2024/03/18 11:48:00;;;;;;;85.15;29.60;;;;;;;;;;6272849;22;20011;-72
2024/03/18 11:50:30;;;;;;;79.75;29.38;;;;;;;;;;6270720;22;20090;-71
2024/03/18 11:52:56;;;;;;;86.35;32.92;;;;;;;;;;6244139;22;20023;-71
2024/03/18 11:55:22;;;;;;;85.50;30.70;;;;;;;;;;6269685;22;20019;-70
2024/03/18 11:57:48;;;;;;;74.57;28.90;;;;;;;;;;6245290;22;20012;-70
2024/03/18 12:00:14;;;;;;;84.05;32.35;;;;;;;;;;6271929;22;20494;-72
2024/03/18 12:02:41;;;;;;;72.85;29.77;;;;;;;;;;6269246;22;20117;-71
2024/03/18 12:05:09;;;;;;;72.40;28.75;;;;;;;;;;6271558;22;20035;-71
2024/03/18 12:07:35;;;;;;;68.38;26.83;;;;;;;;;;6270376;22;20054;-72
2024/03/18 12:10:01;;;;;;;75.05;29.92;;;;;;;;;;6245215;22;20206;-71
2024/03/18 12:12:27;;;;;;;61.83;27.85;;;;;;;;;;6269283;22;20393;-71
2024/03/18 12:14:54;;;;;;;92.20;30.13;;;;;;;;;;6272264;22;20008;-71
2024/03/18 12:17:20;;;;;;;89.60;27.75;;;;;;;;;;6270267;22;20035;-73
2024/03/18 12:19:51;;;;;;;81.25;31.75;;;;;;;;;;6272449;22;20035;-71
2024/03/18 12:22:23;;;;;;;84.57;30.13;;;;;;;;;;6243857;22;20476;-72
2024/03/18 12:30:24;;;;;;;84.03;29.05;;;;;;;;;;6271677;22;20363;-72
2024/03/18 12:32:50;;;;;;;76.82;27.35;;;;;;;;;;6268422;22;20012;-71
2024/03/18 12:35:17;;;;;;;75.93;26.17;;;;;;;;;;6269832;22;20007;-72
2024/03/18 12:37:45;;;;;;;81.45;30.50;;;;;;;;;;6270285;22;20015;-71
2024/03/18 12:40:16;;;;;;;75.63;28.73;;;;;;;;;;6272064;22;20042;-72
2024/03/18 12:42:43;;;;;;;89.50;28.40;;;;;;;;;;6269671;22;20093;-72
2024/03/18 12:45:12;;;;;;;73.05;28.35;;;;;;;;;;6269947;22;20007;-72
2024/03/18 12:47:38;;;;;;;75.40;26.88;;;;;;;;;;6271605;22;20015;-72
2024/03/18 12:50:05;;;;;;;76.97;24.58;;;;;;;;;;6245409;22;20035;-71
2024/03/18 12:52:37;;;;;;;81.90;28.48;;;;;;;;;;6268769;22;20019;-73
2024/03/18 12:55:04;;;;;;;82.65;29.63;;;;;;;;;;6272255;22;20034;-71
2024/03/18 12:57:31;;;;;;;78.97;28.23;;;;;;;;;;6271288;22;20015;-70
2024/03/18 12:59:57;;;;;;;77.53;25.80;;;;;;;;;;6271814;22;20460;-71
2024/03/18 13:02:26;;;;;;;77.05;30.10;;;;;;;;;;6222536;22;20075;-73
2024/03/18 13:04:55;;;;;;;63.30;25.25;;;;;;;;;;6067613;23;20041;-70
2024/03/18 13:07:21;;;;;;;74.80;29.17;;;;;;;;;;6090861;23;20017;-72
2024/03/18 13:09:49;;;;;;;66.22;25.60;;;;;;;;;;6117134;23;20010;-70
2024/03/18 13:12:15;;;;;;;61.60;25.48;;;;;;;;;;6143369;22;20043;-70
2024/03/18 13:14:41;;;;;;;67.93;26.73;;;;;;;;;;6214324;23;20012;-73
2024/03/18 13:17:07;;;;;;;71.35;25.52;;;;;;;;;;6239376;23;20079;-72
2024/03/18 13:19:36;;;;;;;58.55;22.55;;;;;;;;;;6240451;23;20516;-70
2024/03/18 13:22:01;;;;;;;54.60;24.35;;;;;;;;;;6214374;22;20019;-71
2024/03/18 13:24:28;;;;;;;60.28;25.55;;;;;;;;;;6239504;23;20024;-71
2024/03/18 13:26:59;;;;;;;52.95;22.90;;;;;;;;;;6213637;23;20012;-70
2024/03/18 13:29:31;;;;;;;71.65;27.42;;;;;;;;;;6240448;22;20019;-72
2024/03/18 13:31:57;;;;;;;65.35;22.90;;;;;;;;;;6241214;22;20015;-73
2024/03/18 13:34:22;;;;;;;82.25;30.40;;;;;;;;;;6270591;22;20011;-73
2024/03/18 13:36:48;;;;;;;65.82;25.30;;;;;;;;;;6270305;22;20019;-72
2024/03/18 13:39:15;;;;;;;62.30;22.23;;;;;;;;;;6269398;22;20085;-71
2024/03/18 13:41:41;;;;;;;64.00;23.00;;;;;;;;;;6271084;22;20018;-72
2024/03/18 13:44:07;;;;;;;63.65;22.25;;;;;;;;;;6268553;22;20031;-73
2024/03/18 13:46:34;;;;;;;56.08;22.83;;;;;;;;;;6270547;22;20014;-72
2024/03/18 13:49:03;;;;;;;72.68;21.33;;;;;;;;;;6270609;22;20475;-72
2024/03/18 13:51:31;;;;;;;64.90;24.38;;;;;;;;;;6270568;22;20018;-71
2024/03/18 13:53:57;;;;;;;65.95;23.52;;;;;;;;;;6268639;22;20020;-73
2024/03/18 13:56:23;;;;;;;73.80;27.27;;;;;;;;;;6243978;22;20026;-73
2024/03/18 13:58:50;;;;;;;57.25;21.80;;;;;;;;;;6269700;22;20011;-72
2024/03/18 14:01:16;;;;;;;62.67;21.88;;;;;;;;;;6272083;22;20011;-71
2024/03/18 14:03:44;;;;;;;65.80;22.92;;;;;;;;;;6270508;22;20028;-71
2024/03/18 14:06:10;;;;;;;65.32;21.70;;;;;;;;;;6269456;22;20019;-72
2024/03/18 14:08:36;;;;;;;65.95;23.88;;;;;;;;;;6244128;22;20054;-71
2024/03/18 14:11:03;;;;;;;73.03;24.65;;;;;;;;;;6244368;22;20007;-72
2024/03/18 14:13:29;;;;;;;64.25;24.33;;;;;;;;;;6269720;22;20027;-70
2024/03/18 14:15:55;;;;;;;57.45;21.35;;;;;;;;;;6270521;22;20008;-71
2024/03/18 14:18:21;;;;;;;66.57;21.58;;;;;;;;;;6272212;22;20016;-71
2024/03/18 14:20:47;;;;;;;63.50;22.50;;;;;;;;;;6246870;22;20093;-70
2024/03/18 14:23:13;;;;;;;73.35;25.42;;;;;;;;;;6243114;22;20031;-72
2024/03/18 14:25:40;;;;;;;68.35;21.63;;;;;;;;;;6271467;22;20474;-73
2024/03/18 14:30:51;;;;;;;74.07;25.42;;;;;;;;;;6271466;22;20007;-73